Portada
METAR-TAF:

METAR-TAF

Aeroports :

Dawadmi, Aràbia Saudita

latitud: 24-26-59N, longitud: 044-07-16E, altitud: 922 m

Observació

L'informe es va fer fa 42 minuts, a les 18:00 UTC
Vent 15 kt del Nord/Nord-Est
Temperatura 32°C
Humitat 14%
Pressió 1014 hPa
Visibilitat: 1000 m
torb alta de pols

METAR: OEDM 251800Z 03015KT 1000 BLDU NSC 32/01 Q1014

Hora: 21:42 (18:42 UTC)


TAF: manca

Observacions i pronòstics meteorològics de més de 4000 aeroports (METAR i TAF).

Les estacions disponibles són els punts grocs i vermells al mapa.

Posi el ratolí al punt desitjat per veure el nom de l'estació.

Feu clic per veure les observacions i els pronòstics meteorològics.

Per canviar el mapa: feu clic els botons verds amb una creu de color negre per apropar; al botó verd amb un guió per allunyar la imatge; o en les fletxes verdes per a mapes adjacents.


METAR-TAF: